Time;durP1;ratioP1;P1;durP2;ratioP2;P2;SDS_P1;SDS_P2;PMS_P1;PMS_P2;Temp;Humidity;BMP_temperature;BMP_pressure;BME280_temperature;BME280_humidity;BME280_pressure;Samples;Min_cycle;Max_cycle;Signal;HPM_P1;HPM_P2
2021/03/14 00:01:59;;;;;;;8.43;3.53;;;20.20;36.00;;;;;;5076249;28;20020;-59
2021/03/14 00:04:24;;;;;;;8.90;3.70;;;20.20;36.00;;;;;;5076394;28;20476;-59
2021/03/14 00:06:49;;;;;;;7.95;3.63;;;20.20;36.00;;;;;;5076222;28;20069;-59
2021/03/14 00:09:15;;;;;;;8.00;2.92;;;20.20;36.00;;;;;;5076360;28;20128;-59
2021/03/14 00:11:40;;;;;;;7.45;3.75;;;20.10;36.00;;;;;;5076153;28;20434;-59
2021/03/14 00:14:06;;;;;;;8.38;3.70;;;20.10;36.00;;;;;;5076757;28;20032;-58
2021/03/14 00:16:31;;;;;;;7.65;3.83;;;20.10;36.00;;;;;;5076538;28;20077;-59
2021/03/14 00:18:58;;;;;;;6.70;3.60;;;20.10;36.00;;;;;;5075850;28;20147;-60
2021/03/14 00:21:23;;;;;;;7.32;3.78;;;20.10;36.00;;;;;;5076589;28;20021;-58
2021/03/14 00:23:49;;;;;;;7.50;3.92;;;20.10;36.00;;;;;;5076493;28;20417;-59
2021/03/14 00:26:15;;;;;;;6.55;3.47;;;20.10;36.00;;;;;;5076013;28;20024;-58
2021/03/14 00:28:41;;;;;;;7.50;3.85;;;20.10;36.00;;;;;;5075953;28;20017;-58
2021/03/14 00:31:06;;;;;;;7.88;4.13;;;20.10;36.00;;;;;;5075438;28;20051;-59
2021/03/14 00:33:32;;;;;;;8.18;4.15;;;20.10;36.00;;;;;;5075829;28;20030;-60
2021/03/14 00:35:58;;;;;;;7.53;3.63;;;20.00;36.00;;;;;;5074362;28;20062;-59
2021/03/14 00:38:23;;;;;;;7.38;3.97;;;20.10;36.00;;;;;;5075572;28;20515;-60
2021/03/14 00:40:49;;;;;;;7.82;3.80;;;20.00;36.00;;;;;;5075271;28;20032;-59
2021/03/14 00:43:14;;;;;;;7.95;3.90;;;20.10;36.00;;;;;;5075692;28;20080;-59
2021/03/14 00:45:40;;;;;;;8.70;4.40;;;20.00;36.00;;;;;;5076046;28;20025;-59
2021/03/14 00:48:07;;;;;;;6.82;3.75;;;20.00;36.00;;;;;;5075828;28;20020;-59
2021/03/14 00:50:34;;;;;;;7.72;3.90;;;20.00;36.00;;;;;;5075788;28;20032;-59
2021/03/14 00:53:00;;;;;;;6.82;3.72;;;20.10;36.00;;;;;;5075324;28;20568;-59
2021/03/14 00:55:25;;;;;;;7.47;3.83;;;20.00;36.00;;;;;;5074866;28;20129;-59
2021/03/14 00:57:51;;;;;;;8.85;4.20;;;20.00;36.00;;;;;;5075210;28;20028;-59
2021/03/14 01:00:17;;;;;;;7.38;4.38;;;20.00;36.00;;;;;;5075156;28;20112;-59
2021/03/14 01:02:42;;;;;;;7.93;4.30;;;20.00;36.00;;;;;;5075220;28;20051;-59
2021/03/14 01:05:08;;;;;;;8.80;4.25;;;20.00;36.00;;;;;;5075669;28;20028;-59
2021/03/14 01:07:34;;;;;;;9.10;4.82;;;20.00;36.00;;;;;;5075150;28;20024;-59
2021/03/14 01:09:59;;;;;;;7.63;4.40;;;20.00;36.00;;;;;;5074970;28;20542;-60
2021/03/14 01:12:25;;;;;;;8.90;4.53;;;20.00;36.00;;;;;;5075310;28;20044;-59
2021/03/14 01:14:50;;;;;;;8.10;4.43;;;20.00;36.00;;;;;;5074994;28;20024;-60
2021/03/14 01:17:16;;;;;;;8.57;4.25;;;20.00;36.00;;;;;;5074615;28;20368;-59
2021/03/14 01:19:41;;;;;;;10.25;4.70;;;20.00;36.00;;;;;;5074627;28;20041;-60
2021/03/14 01:22:07;;;;;;;8.45;4.30;;;20.00;36.00;;;;;;5074835;28;20027;-59
2021/03/14 01:24:33;;;;;;;7.93;4.28;;;20.00;36.00;;;;;;5075002;28;20353;-59
2021/03/14 01:26:58;;;;;;;9.65;4.85;;;20.00;36.10;;;;;;5074721;28;20494;-60
2021/03/14 01:29:24;;;;;;;8.48;4.47;;;20.00;36.00;;;;;;5074559;28;20027;-59
2021/03/14 01:31:49;;;;;;;7.25;4.10;;;20.00;36.00;;;;;;5074564;28;20032;-59
2021/03/14 01:34:15;;;;;;;7.93;4.05;;;19.90;36.00;;;;;;5074396;28;20484;-59
2021/03/14 01:36:40;;;;;;;7.43;4.05;;;19.90;36.00;;;;;;5074216;28;20469;-60
2021/03/14 01:39:06;;;;;;;6.88;3.95;;;20.00;36.00;;;;;;5074415;28;20191;-59
2021/03/14 01:41:32;;;;;;;7.63;4.22;;;19.90;36.00;;;;;;5074300;28;20031;-59
2021/03/14 01:43:58;;;;;;;8.75;4.22;;;19.90;36.00;;;;;;5073923;28;20556;-59
2021/03/14 01:46:24;;;;;;;7.78;4.18;;;19.90;36.00;;;;;;5074774;28;20111;-59
2021/03/14 01:48:49;;;;;;;8.18;3.95;;;19.90;36.00;;;;;;5074136;28;20048;-59
2021/03/14 01:51:15;;;;;;;9.80;4.60;;;19.90;36.00;;;;;;5074102;28;20024;-59
2021/03/14 01:53:41;;;;;;;8.82;4.35;;;19.90;36.00;;;;;;5073661;28;20036;-60
2021/03/14 01:56:07;;;;;;;8.50;4.60;;;19.90;36.00;;;;;;5078607;28;20020;-59
2021/03/14 01:58:34;;;;;;;8.80;4.00;;;19.90;36.00;;;;;;5083210;28;20077;-59
2021/03/14 02:01:01;;;;;;;7.80;3.97;;;19.90;36.00;;;;;;5080932;28;20092;-59
2021/03/14 02:03:26;;;;;;;7.95;4.45;;;19.90;36.00;;;;;;5076055;28;20048;-59
2021/03/14 02:05:52;;;;;;;9.30;4.47;;;19.80;36.00;;;;;;5075804;28;20090;-59
2021/03/14 02:08:19;;;;;;;7.63;3.88;;;19.80;36.00;;;;;;5074224;28;20507;-59
2021/03/14 02:10:48;;;;;;;8.20;4.45;;;19.90;36.00;;;;;;5074571;28;20028;-59
2021/03/14 02:13:21;;;;;;;8.30;3.92;;;19.80;36.00;;;;;;5073842;28;20029;-60
2021/03/14 02:16:07;;;;;;;7.63;4.13;;;19.80;36.00;;;;;;5073589;28;20026;-58
2021/03/14 02:18:33;;;;;;;7.88;4.50;;;19.80;36.00;;;;;;5073289;28;20040;-59
2021/03/14 02:20:59;;;;;;;6.97;4.13;;;19.80;36.00;;;;;;5073641;28;20017;-59
2021/03/14 02:23:36;;;;;;;9.20;4.70;;;19.80;36.00;;;;;;5073974;28;20027;-59
2021/03/14 02:26:07;;;;;;;9.27;4.88;;;19.90;36.00;;;;;;5073832;28;20031;-61
2021/03/14 02:28:35;;;;;;;8.05;4.47;;;19.80;36.00;;;;;;5073612;28;20488;-59
2021/03/14 02:31:01;;;;;;;7.55;4.20;;;19.80;36.00;;;;;;5072220;28;20035;-59
2021/03/14 02:33:31;;;;;;;7.82;4.63;;;19.80;36.00;;;;;;5073928;28;20033;-58
2021/03/14 02:35:57;;;;;;;9.73;4.95;;;19.80;36.00;;;;;;5073605;28;20107;-59
2021/03/14 02:38:24;;;;;;;10.95;4.35;;;19.80;36.10;;;;;;5073861;28;20056;-58
2021/03/14 02:40:50;;;;;;;10.85;5.05;;;19.80;36.00;;;;;;5073628;28;20021;-59
2021/03/14 02:43:17;;;;;;;8.63;4.65;;;19.80;36.00;;;;;;5073473;28;20017;-59
2021/03/14 02:45:43;;;;;;;9.32;5.15;;;19.80;36.10;;;;;;5073392;28;20029;-58
2021/03/14 02:48:10;;;;;;;9.02;4.47;;;19.80;36.10;;;;;;5073257;28;20047;-58
2021/03/14 02:50:37;;;;;;;8.15;4.53;;;19.70;36.10;;;;;;5073442;28;20032;-58
2021/03/14 02:53:04;;;;;;;10.52;4.85;;;19.70;36.10;;;;;;5073260;28;20389;-59
2021/03/14 02:55:31;;;;;;;8.00;4.50;;;19.70;36.10;;;;;;5073238;28;20048;-59
2021/03/14 02:57:58;;;;;;;8.98;4.80;;;19.80;36.10;;;;;;5073441;28;20035;-59
2021/03/14 03:00:26;;;;;;;9.52;4.47;;;19.80;36.10;;;;;;5071974;28;20081;-59
2021/03/14 03:02:55;;;;;;;8.38;4.82;;;19.80;36.10;;;;;;5073344;28;20522;-59
2021/03/14 03:05:22;;;;;;;11.15;5.63;;;19.70;36.20;;;;;;5073038;28;20024;-60
2021/03/14 03:07:55;;;;;;;9.82;5.32;;;19.70;36.10;;;;;;5073634;28;20031;-59
2021/03/14 03:10:25;;;;;;;10.27;5.53;;;19.70;36.10;;;;;;5080294;28;20078;-61
2021/03/14 03:12:51;;;;;;;10.38;5.40;;;19.70;36.20;;;;;;5073616;28;20094;-60
2021/03/14 03:15:19;;;;;;;8.93;4.63;;;19.70;36.20;;;;;;5075756;28;20077;-59
2021/03/14 03:17:48;;;;;;;9.02;5.22;;;19.70;36.20;;;;;;5076120;28;20071;-59
2021/03/14 03:20:14;;;;;;;9.63;5.38;;;19.70;36.20;;;;;;5074162;28;20150;-60
2021/03/14 03:22:41;;;;;;;8.95;4.88;;;19.70;36.20;;;;;;5088680;28;20048;-60
2021/03/14 03:25:07;;;;;;;8.98;5.10;;;19.70;36.20;;;;;;5073139;28;20478;-60
2021/03/14 03:27:36;;;;;;;12.20;5.43;;;19.70;36.20;;;;;;5072938;28;20137;-59
2021/03/14 03:30:08;;;;;;;8.70;4.95;;;19.70;36.10;;;;;;5073189;28;20023;-59
2021/03/14 03:32:33;;;;;;;11.48;5.35;;;19.60;36.20;;;;;;5072736;28;20119;-59
2021/03/14 03:34:59;;;;;;;10.35;4.97;;;19.70;36.20;;;;;;5072858;28;20503;-59
2021/03/14 03:37:25;;;;;;;10.07;5.00;;;19.70;36.20;;;;;;5072803;28;20025;-59
2021/03/14 03:39:50;;;;;;;9.43;5.28;;;19.60;36.20;;;;;;5072670;28;20056;-59
2021/03/14 03:42:21;;;;;;;10.45;5.47;;;19.70;36.20;;;;;;5072943;28;20059;-59
2021/03/14 03:44:47;;;;;;;8.75;4.72;;;19.60;36.20;;;;;;5088501;28;20024;-59
2021/03/14 03:47:14;;;;;;;8.30;5.18;;;19.60;36.20;;;;;;5088330;28;20028;-59
2021/03/14 03:49:43;;;;;;;8.95;4.88;;;19.70;36.20;;;;;;5072581;28;20036;-59
2021/03/14 03:52:11;;;;;;;9.30;5.00;;;19.70;36.20;;;;;;5072747;28;20033;-59
2021/03/14 03:54:37;;;;;;;7.72;4.65;;;19.60;36.20;;;;;;5072558;28;20033;-59
2021/03/14 03:57:03;;;;;;;8.13;4.78;;;19.60;36.20;;;;;;5072392;28;20349;-59
2021/03/14 03:59:32;;;;;;;9.55;5.03;;;19.60;36.20;;;;;;5072817;28;20020;-59
2021/03/14 04:01:58;;;;;;;9.70;5.20;;;19.60;36.20;;;;;;5072757;28;20032;-59
2021/03/14 04:04:25;;;;;;;9.27;5.30;;;19.60;36.20;;;;;;5072661;28;20029;-59
2021/03/14 04:06:53;;;;;;;9.30;5.43;;;19.60;36.20;;;;;;5074799;28;20020;-59
2021/03/14 04:09:19;;;;;;;9.98;5.20;;;19.60;36.20;;;;;;5076300;28;20096;-59
2021/03/14 04:11:46;;;;;;;9.68;5.20;;;19.60;36.30;;;;;;5076117;28;20023;-59
2021/03/14 04:14:13;;;;;;;9.93;5.55;;;19.60;36.20;;;;;;5076080;28;20112;-59
2021/03/14 04:16:39;;;;;;;10.07;5.72;;;19.60;36.30;;;;;;5076029;28;20036;-59
2021/03/14 04:19:11;;;;;;;10.63;5.60;;;19.60;36.20;;;;;;5075700;28;20049;-59
2021/03/14 04:21:38;;;;;;;8.38;4.65;;;19.60;36.20;;;;;;5076051;28;20037;-59
2021/03/14 04:24:06;;;;;;;10.27;5.18;;;19.60;36.20;;;;;;5075900;28;20557;-59
2021/03/14 04:26:32;;;;;;;10.73;5.43;;;19.60;36.20;;;;;;5076247;28;20052;-59
2021/03/14 04:28:59;;;;;;;11.02;5.35;;;19.60;36.20;;;;;;5076038;28;20104;-60
2021/03/14 04:31:26;;;;;;;9.50;5.43;;;19.60;36.20;;;;;;5075820;28;20032;-59
2021/03/14 04:33:53;;;;;;;9.70;5.40;;;19.60;36.20;;;;;;5075563;28;20035;-59
2021/03/14 04:36:20;;;;;;;9.20;5.40;;;19.60;36.20;;;;;;5075709;28;20457;-59
2021/03/14 04:38:46;;;;;;;9.75;5.28;;;19.60;36.20;;;;;;5076184;28;20456;-59
2021/03/14 04:41:13;;;;;;;10.50;5.13;;;19.50;36.20;;;;;;5076008;28;20021;-59
2021/03/14 04:43:41;;;;;;;9.02;5.00;;;19.60;36.30;;;;;;5076234;28;20506;-59
2021/03/14 04:46:07;;;;;;;9.63;4.57;;;19.50;36.20;;;;;;5082212;28;20107;-60
2021/03/14 04:48:32;;;;;;;9.50;5.35;;;19.50;36.30;;;;;;5078897;28;20024;-59
2021/03/14 04:50:58;;;;;;;9.60;5.20;;;19.50;36.30;;;;;;5075551;28;20377;-59
2021/03/14 04:53:27;;;;;;;10.38;5.30;;;19.50;36.30;;;;;;5075267;28;20366;-59
2021/03/14 04:55:54;;;;;;;9.35;5.30;;;19.50;36.30;;;;;;5075555;28;20104;-59
2021/03/14 04:58:22;;;;;;;10.05;4.85;;;19.50;36.20;;;;;;5075546;28;20029;-59
2021/03/14 05:00:49;;;;;;;9.60;4.70;;;19.50;36.30;;;;;;5075129;28;20054;-59
2021/03/14 05:03:17;;;;;;;8.48;4.47;;;19.50;36.30;;;;;;5074787;28;20055;-60
2021/03/14 05:05:45;;;;;;;8.65;5.03;;;19.50;36.20;;;;;;5075256;28;20032;-59
2021/03/14 05:08:12;;;;;;;9.55;5.43;;;19.50;36.30;;;;;;5075524;28;20048;-59
2021/03/14 05:10:40;;;;;;;10.07;4.93;;;19.50;36.20;;;;;;5074863;28;20468;-59
2021/03/14 05:13:06;;;;;;;8.38;4.28;;;19.50;36.20;;;;;;5075199;28;20029;-59
2021/03/14 05:15:32;;;;;;;9.52;4.80;;;19.60;36.10;;;;;;5075141;28;20469;-59
2021/03/14 05:18:00;;;;;;;8.25;4.63;;;19.60;36.10;;;;;;5073652;28;20052;-59
2021/03/14 05:20:28;;;;;;;8.85;5.00;;;19.60;36.10;;;;;;5074934;28;20077;-59
2021/03/14 05:22:55;;;;;;;9.77;5.25;;;19.70;36.00;;;;;;5074829;28;20033;-59
2021/03/14 05:25:21;;;;;;;9.43;4.85;;;19.70;36.00;;;;;;5074638;28;20214;-59
2021/03/14 05:27:49;;;;;;;8.40;4.90;;;19.70;36.00;;;;;;5074747;28;20146;-59
2021/03/14 05:30:23;;;;;;;11.13;4.97;;;19.80;36.00;;;;;;5074811;28;20098;-59
2021/03/14 05:32:51;;;;;;;8.23;4.60;;;19.80;35.90;;;;;;5074489;28;20380;-59
2021/03/14 05:35:19;;;;;;;8.45;4.70;;;19.80;35.90;;;;;;5074668;28;20036;-59
2021/03/14 05:37:45;;;;;;;8.77;4.88;;;19.90;35.90;;;;;;5074542;28;20024;-59
2021/03/14 05:40:11;;;;;;;9.93;4.88;;;19.90;35.90;;;;;;5074912;28;20028;-59
2021/03/14 05:42:37;;;;;;;8.20;4.30;;;20.00;35.80;;;;;;5074437;28;20157;-59
2021/03/14 05:45:04;;;;;;;7.28;3.95;;;19.90;35.80;;;;;;5073115;28;20468;-59
2021/03/14 05:47:30;;;;;;;10.40;4.95;;;19.90;35.80;;;;;;5074394;28;20028;-58
2021/03/14 05:49:56;;;;;;;8.48;4.07;;;20.00;35.80;;;;;;5074391;28;20024;-59
2021/03/14 05:52:23;;;;;;;8.00;4.43;;;20.00;35.80;;;;;;5074186;28;20055;-59
2021/03/14 05:54:51;;;;;;;8.13;4.68;;;20.00;35.80;;;;;;5074410;28;20029;-59
2021/03/14 05:57:18;;;;;;;8.35;4.28;;;20.00;35.80;;;;;;5074283;28;20033;-59
2021/03/14 05:59:49;;;;;;;7.47;3.70;;;20.00;35.70;;;;;;5074081;28;20025;-59
2021/03/14 06:02:17;;;;;;;8.15;4.20;;;20.00;35.70;;;;;;5074219;28;20020;-59
2021/03/14 06:04:43;;;;;;;8.07;4.50;;;20.00;35.70;;;;;;5074014;28;20027;-59
2021/03/14 06:07:08;;;;;;;7.75;4.20;;;20.00;35.70;;;;;;5074534;28;20028;-60
2021/03/14 06:09:34;;;;;;;9.98;4.53;;;20.10;35.70;;;;;;5073772;28;20024;-60
2021/03/14 06:11:59;;;;;;;9.48;3.90;;;20.10;35.70;;;;;;5074191;28;20115;-60
2021/03/14 06:14:25;;;;;;;7.88;4.07;;;20.10;35.70;;;;;;5073863;28;20460;-60
2021/03/14 06:16:51;;;;;;;7.18;3.60;;;20.10;35.70;;;;;;5074192;28;20040;-60
2021/03/14 06:19:17;;;;;;;7.63;4.07;;;20.10;35.70;;;;;;5073388;28;20045;-60
2021/03/14 06:21:42;;;;;;;7.22;4.03;;;20.10;35.60;;;;;;5073421;28;20021;-60
2021/03/14 06:24:11;;;;;;;9.93;4.00;;;20.20;35.70;;;;;;5073368;28;20024;-60
2021/03/14 06:26:46;;;;;;;8.00;3.75;;;20.10;35.60;;;;;;5073208;28;20024;-60
2021/03/14 06:29:18;;;;;;;8.32;4.38;;;20.20;35.60;;;;;;5073872;28;20047;-60
2021/03/14 06:31:58;;;;;;;7.97;3.80;;;20.20;35.60;;;;;;5073304;28;20421;-59
2021/03/14 06:34:28;;;;;;;9.20;4.30;;;20.20;35.60;;;;;;5073737;28;20107;-60
2021/03/14 06:36:56;;;;;;;7.70;3.72;;;20.20;35.60;;;;;;5073429;28;20032;-60
2021/03/14 06:39:24;;;;;;;9.32;3.60;;;20.30;35.60;;;;;;5074307;28;20021;-59
2021/03/14 06:41:50;;;;;;;9.30;4.28;;;20.30;35.50;;;;;;5073953;28;20025;-60
2021/03/14 06:44:28;;;;;;;7.10;3.70;;;20.30;35.50;;;;;;5073775;28;20021;-60
2021/03/14 06:46:55;;;;;;;7.20;3.50;;;20.30;35.50;;;;;;5089334;28;20028;-60
2021/03/14 06:49:23;;;;;;;7.70;3.33;;;20.30;35.50;;;;;;5073564;28;20025;-60
2021/03/14 06:51:54;;;;;;;7.85;4.07;;;20.40;35.50;;;;;;5073102;28;20056;-59
2021/03/14 06:54:30;;;;;;;6.88;3.33;;;20.40;35.50;;;;;;5073705;28;20137;-59
2021/03/14 06:57:09;;;;;;;6.68;3.45;;;20.40;35.40;;;;;;5073660;28;20021;-60
2021/03/14 06:59:48;;;;;;;7.00;3.33;;;20.40;35.50;;;;;;5073691;28;20153;-61
2021/03/14 07:02:15;;;;;;;7.32;3.25;;;20.40;35.40;;;;;;5073390;28;20373;-59
2021/03/14 07:05:01;;;;;;;8.65;3.67;;;20.40;35.50;;;;;;5073381;28;20480;-59
2021/03/14 07:07:32;;;;;;;8.10;3.88;;;20.40;35.50;;;;;;5073246;28;20016;-59
2021/03/14 07:10:06;;;;;;;7.85;3.55;;;20.40;35.40;;;;;;5073206;28;20484;-59
2021/03/14 07:12:33;;;;;;;6.50;3.42;;;20.50;35.50;;;;;;5073120;28;20040;-60
2021/03/14 07:15:20;;;;;;;9.40;3.85;;;20.40;35.40;;;;;;5073348;28;20081;-59
2021/03/14 07:17:53;;;;;;;7.10;3.60;;;20.50;35.40;;;;;;5072848;28;20074;-59
2021/03/14 07:20:22;;;;;;;6.95;3.60;;;20.50;35.40;;;;;;5073112;28;20028;-59
2021/03/14 07:23:08;;;;;;;10.43;4.00;;;20.50;35.40;;;;;;5073085;28;20024;-60
2021/03/14 07:25:39;;;;;;;7.10;3.40;;;20.40;35.40;;;;;;5073058;28;20119;-58
2021/03/14 07:28:06;;;;;;;6.85;3.33;;;20.50;35.40;;;;;;5073239;28;20093;-59
2021/03/14 07:30:31;;;;;;;7.28;3.40;;;20.50;35.40;;;;;;5072996;28;20063;-59
2021/03/14 07:32:57;;;;;;;6.47;3.03;;;20.50;35.40;;;;;;5072661;28;20068;-59
2021/03/14 07:35:23;;;;;;;7.82;3.15;;;20.50;35.40;;;;;;5072556;28;20025;-59
2021/03/14 07:37:53;;;;;;;5.43;3.03;;;20.50;35.40;;;;;;5073037;28;20488;-59
2021/03/14 07:40:23;;;;;;;7.05;3.60;;;20.50;35.40;;;;;;5072797;28;20024;-59
2021/03/14 07:42:49;;;;;;;6.47;3.08;;;20.50;35.40;;;;;;5076290;28;20472;-60
2021/03/14 07:45:18;;;;;;;6.57;3.10;;;20.50;35.40;;;;;;5076959;28;20029;-59
2021/03/14 07:47:44;;;;;;;6.75;2.83;;;20.50;35.40;;;;;;5076700;28;20031;-59
2021/03/14 07:50:26;;;;;;;6.93;3.25;;;20.50;35.40;;;;;;5076507;28;20103;-59
2021/03/14 07:52:57;;;;;;;6.95;3.13;;;20.50;35.40;;;;;;5076467;28;20557;-59
2021/03/14 07:55:23;;;;;;;7.43;3.22;;;20.50;35.40;;;;;;5076631;28;20029;-61
2021/03/14 07:57:52;;;;;;;7.75;3.13;;;20.50;35.40;;;;;;5076615;28;20032;-59
2021/03/14 08:00:25;;;;;;;5.68;2.92;;;20.50;35.40;;;;;;5076598;28;20085;-59
2021/03/14 08:02:56;;;;;;;5.88;2.78;;;20.50;35.50;;;;;;5076697;28;20032;-59
2021/03/14 08:05:42;;;;;;;7.30;3.28;;;20.50;35.40;;;;;;5076244;28;20048;-59
2021/03/14 08:08:12;;;;;;;6.18;3.13;;;20.50;35.40;;;;;;5076288;28;20024;-58
2021/03/14 08:10:41;;;;;;;5.60;2.45;;;20.60;35.40;;;;;;5076413;28;20024;-59
2021/03/14 08:13:13;;;;;;;7.50;2.88;;;20.60;35.40;;;;;;5075976;28;20041;-59
2021/03/14 08:15:40;;;;;;;6.63;3.35;;;20.60;35.40;;;;;;5075881;28;20036;-59
2021/03/14 08:18:05;;;;;;;6.18;2.80;;;20.60;35.40;;;;;;5075987;28;20041;-59
2021/03/14 08:20:45;;;;;;;6.50;2.72;;;20.60;35.40;;;;;;5075812;28;20538;-59
2021/03/14 08:23:12;;;;;;;6.97;3.25;;;20.60;35.40;;;;;;5075769;28;20021;-59
2021/03/14 08:25:41;;;;;;;6.40;3.15;;;20.60;35.50;;;;;;5076030;28;20028;-59
2021/03/14 08:28:22;;;;;;;5.53;2.88;;;20.60;35.50;;;;;;5075617;28;20088;-59
2021/03/14 08:30:52;;;;;;;6.47;2.78;;;20.60;35.40;;;;;;5075746;28;20039;-59
2021/03/14 08:33:17;;;;;;;5.53;2.50;;;20.60;35.50;;;;;;5075820;28;20048;-59
2021/03/14 08:35:47;;;;;;;5.57;2.65;;;20.60;35.50;;;;;;5075688;28;20388;-60
2021/03/14 08:38:32;;;;;;;4.85;2.08;;;20.60;35.50;;;;;;5075498;28;20158;-59
2021/03/14 08:41:16;;;;;;;5.50;2.70;;;20.60;35.40;;;;;;5075673;28;20372;-59
2021/03/14 08:43:43;;;;;;;6.75;2.67;;;20.60;35.40;;;;;;5076117;28;20025;-59
2021/03/14 08:46:09;;;;;;;7.35;2.90;;;20.60;35.40;;;;;;5076045;28;20035;-61
2021/03/14 08:48:35;;;;;;;6.75;3.30;;;20.70;35.40;;;;;;5075372;28;20020;-59
2021/03/14 08:51:01;;;;;;;5.72;2.67;;;20.60;35.40;;;;;;5075626;28;20028;-59
2021/03/14 08:53:27;;;;;;;5.75;2.63;;;20.60;35.40;;;;;;5075454;28;20480;-59
2021/03/14 08:55:52;;;;;;;8.35;2.60;;;20.70;35.40;;;;;;5075193;28;20099;-59
2021/03/14 08:58:18;;;;;;;6.03;3.03;;;20.70;35.40;;;;;;5075215;28;20059;-59
2021/03/14 09:00:43;;;;;;;4.90;2.47;;;20.70;35.40;;;;;;5075264;28;20073;-60
2021/03/14 09:03:12;;;;;;;5.10;2.47;;;20.70;35.40;;;;;;5075036;28;20111;-59
2021/03/14 09:06:22;;;;;;;5.00;2.22;;;20.70;35.40;;;;;;5075399;28;20050;-59
2021/03/14 09:08:59;;;;;;;9.10;2.90;;;20.70;35.30;;;;;;5068224;28;20036;-59
2021/03/14 09:11:58;;;;;;;5.22;2.58;;;20.70;35.30;;;;;;5074740;28;20017;-59
2021/03/14 09:14:29;;;;;;;7.78;2.90;;;20.70;35.30;;;;;;5063495;28;20032;-59
2021/03/14 09:17:15;;;;;;;5.75;2.60;;;20.80;35.30;;;;;;5074984;28;20465;-60
2021/03/14 09:19:43;;;;;;;6.32;2.60;;;20.70;35.30;;;;;;5074453;28;20053;-59
2021/03/14 09:22:15;;;;;;;6.03;2.65;;;20.80;35.30;;;;;;5074837;28;20421;-60
2021/03/14 09:24:49;;;;;;;6.38;2.50;;;20.80;35.30;;;;;;5074882;28;20021;-59
2021/03/14 09:27:32;;;;;;;5.13;2.13;;;20.80;35.30;;;;;;5074758;28;20027;-59
2021/03/14 09:30:18;;;;;;;6.20;2.55;;;20.80;35.30;;;;;;5074651;28;20033;-59
2021/03/14 09:32:50;;;;;;;5.47;2.33;;;20.80;35.20;;;;;;5074620;28;20090;-59
2021/03/14 09:35:25;;;;;;;5.15;2.50;;;20.80;35.20;;;;;;5074812;28;20052;-60
2021/03/14 09:37:59;;;;;;;5.00;2.40;;;20.80;35.20;;;;;;5074357;28;20028;-59
2021/03/14 09:40:38;;;;;;;5.25;2.33;;;20.90;35.20;;;;;;5074108;28;20024;-59
2021/03/14 09:43:06;;;;;;;7.97;2.58;;;20.90;35.20;;;;;;5072736;28;20033;-59
2021/03/14 09:45:32;;;;;;;5.53;2.38;;;20.90;35.20;;;;;;5073959;28;20028;-59
2021/03/14 09:48:05;;;;;;;7.07;2.72;;;20.90;35.20;;;;;;5073832;28;20028;-59
2021/03/14 09:50:37;;;;;;;5.57;2.47;;;20.90;35.20;;;;;;5073812;28;20016;-59
2021/03/14 09:53:05;;;;;;;6.68;2.50;;;20.90;35.20;;;;;;5073735;28;20032;-59
2021/03/14 09:55:34;;;;;;;5.55;2.55;;;20.90;35.20;;;;;;5073703;28;20016;-59
2021/03/14 09:58:00;;;;;;;6.00;2.42;;;20.90;35.20;;;;;;5072717;28;20029;-59
2021/03/14 10:00:29;;;;;;;6.50;2.80;;;20.90;35.20;;;;;;5074336;28;20025;-59
2021/03/14 10:02:58;;;;;;;4.72;2.25;;;20.90;35.20;;;;;;5074023;28;20456;-59
2021/03/14 10:05:24;;;;;;;5.60;2.40;;;20.90;35.20;;;;;;5073550;28;20059;-59
2021/03/14 10:07:51;;;;;;;5.85;2.35;;;20.90;35.20;;;;;;5074111;28;20056;-58
2021/03/14 10:10:18;;;;;;;4.82;2.10;;;21.00;35.20;;;;;;5073924;28;20051;-59
2021/03/14 10:12:44;;;;;;;6.72;2.72;;;21.00;35.20;;;;;;5073867;28;20072;-60
2021/03/14 10:15:15;;;;;;;5.47;2.40;;;21.00;35.20;;;;;;5073564;28;20024;-59
2021/03/14 10:17:41;;;;;;;6.28;2.45;;;21.00;35.20;;;;;;5073724;28;20047;-60
2021/03/14 10:20:08;;;;;;;4.85;2.25;;;21.00;35.20;;;;;;5074108;28;20106;-59
2021/03/14 10:22:34;;;;;;;4.97;1.90;;;21.00;35.20;;;;;;5073802;28;20029;-59
2021/03/14 10:24:59;;;;;;;4.93;2.20;;;21.00;35.20;;;;;;5074659;28;20029;-59
2021/03/14 10:27:27;;;;;;;4.70;2.08;;;21.00;35.20;;;;;;5074440;28;20020;-59
2021/03/14 10:29:57;;;;;;;5.78;2.35;;;21.00;35.20;;;;;;5077664;28;20116;-59
2021/03/14 10:32:25;;;;;;;4.80;1.95;;;21.00;35.20;;;;;;5073721;28;20415;-60
2021/03/14 10:35:03;;;;;;;4.85;2.20;;;21.00;35.20;;;;;;5073748;28;20055;-59
2021/03/14 10:37:32;;;;;;;4.10;1.85;;;21.00;35.20;;;;;;5073881;28;20536;-60
2021/03/14 10:40:03;;;;;;;5.70;2.40;;;21.00;35.20;;;;;;5073926;28;20028;-59
2021/03/14 10:42:37;;;;;;;5.45;2.40;;;21.00;35.20;;;;;;5079084;28;20032;-61
2021/03/14 10:45:09;;;;;;;5.40;1.98;;;21.00;35.20;;;;;;5082287;28;20376;-62
2021/03/14 10:47:36;;;;;;;5.20;2.25;;;21.00;35.20;;;;;;5079527;28;20032;-59
2021/03/14 10:50:15;;;;;;;4.60;2.20;;;21.00;35.20;;;;;;5079914;28;20024;-59
2021/03/14 10:52:42;;;;;;;5.65;1.95;;;21.00;35.20;;;;;;5079719;28;20040;-59
2021/03/14 10:55:30;;;;;;;5.25;2.00;;;21.00;35.20;;;;;;5080602;28;20028;-59
2021/03/14 10:58:06;;;;;;;4.43;2.20;;;21.10;35.20;;;;;;5082029;28;20032;-59
2021/03/14 11:00:33;;;;;;;5.03;2.40;;;21.10;35.20;;;;;;5081323;28;20019;-59
2021/03/14 11:03:00;;;;;;;5.25;2.38;;;21.10;35.10;;;;;;5080805;28;20036;-59
2021/03/14 11:05:26;;;;;;;5.53;2.20;;;21.10;35.10;;;;;;5081791;28;20103;-59
2021/03/14 11:07:59;;;;;;;5.53;2.00;;;21.10;35.20;;;;;;5076008;28;20048;-60
2021/03/14 11:10:25;;;;;;;4.10;1.98;;;21.10;35.20;;;;;;5077878;28;20024;-59
2021/03/14 11:12:51;;;;;;;4.70;2.03;;;21.10;35.20;;;;;;5081089;28;20059;-59
2021/03/14 11:15:31;;;;;;;4.20;1.88;;;21.10;35.20;;;;;;5081717;28;20104;-59
2021/03/14 11:17:58;;;;;;;3.58;1.80;;;21.10;35.20;;;;;;5084801;28;20147;-59
2021/03/14 11:20:27;;;;;;;4.85;2.08;;;21.10;35.20;;;;;;5080441;28;20108;-59
2021/03/14 11:22:57;;;;;;;4.70;2.08;;;21.20;35.20;;;;;;5083223;28;20021;-59
2021/03/14 11:25:24;;;;;;;4.40;1.98;;;21.20;35.10;;;;;;5085455;28;20028;-60
2021/03/14 11:27:54;;;;;;;5.15;2.20;;;21.20;35.10;;;;;;5083731;28;20247;-60
2021/03/14 11:30:23;;;;;;;5.15;2.10;;;21.20;35.10;;;;;;5081479;28;20020;-59
2021/03/14 11:32:48;;;;;;;3.33;1.70;;;21.20;35.10;;;;;;5080286;28;20024;-61
2021/03/14 11:35:14;;;;;;;5.45;2.05;;;21.20;35.10;;;;;;5084038;28;20521;-59
2021/03/14 11:37:40;;;;;;;4.80;2.17;;;21.20;35.10;;;;;;5099720;28;20115;-59
2021/03/14 11:40:07;;;;;;;5.05;2.13;;;21.20;35.10;;;;;;5079863;28;20032;-59
2021/03/14 11:42:34;;;;;;;4.43;2.00;;;21.20;35.10;;;;;;5085739;28;20373;-59
2021/03/14 11:45:00;;;;;;;5.65;1.92;;;21.20;35.10;;;;;;5085309;28;20019;-60
2021/03/14 11:47:25;;;;;;;5.53;2.17;;;21.20;35.10;;;;;;5086190;28;20036;-60
2021/03/14 11:49:51;;;;;;;4.63;2.15;;;21.30;35.10;;;;;;5085636;28;20028;-59
2021/03/14 11:52:16;;;;;;;5.63;2.28;;;21.20;35.10;;;;;;5086258;28;20044;-59
2021/03/14 11:54:42;;;;;;;3.53;1.90;;;21.30;35.10;;;;;;5085152;28;20029;-59
2021/03/14 11:57:09;;;;;;;4.88;2.10;;;21.30;35.00;;;;;;5085785;28;20024;-59
2021/03/14 11:59:35;;;;;;;3.83;1.80;;;21.30;35.10;;;;;;5086514;28;20032;-59
2021/03/14 12:02:01;;;;;;;4.75;2.28;;;21.30;35.10;;;;;;5086562;28;20016;-60
2021/03/14 12:04:26;;;;;;;5.53;1.98;;;21.30;35.00;;;;;;5084889;28;20044;-60
2021/03/14 12:06:52;;;;;;;4.50;2.00;;;21.30;35.00;;;;;;5086333;28;20024;-59
2021/03/14 12:09:18;;;;;;;4.97;2.20;;;21.30;35.00;;;;;;5087327;28;20043;-59
2021/03/14 12:11:43;;;;;;;5.30;2.33;;;21.40;35.00;;;;;;5087912;28;20024;-60
2021/03/14 12:14:10;;;;;;;5.22;1.90;;;21.40;35.00;;;;;;5084269;28;20039;-60
2021/03/14 12:16:36;;;;;;;4.95;2.10;;;21.40;34.90;;;;;;5087406;28;20082;-61
2021/03/14 12:19:01;;;;;;;7.95;2.28;;;21.50;34.90;;;;;;5086190;28;20048;-60
2021/03/14 12:21:27;;;;;;;5.05;2.25;;;21.40;34.90;;;;;;5086535;28;20021;-60
2021/03/14 12:23:53;;;;;;;4.95;2.00;;;21.50;34.80;;;;;;5086560;28;20468;-60
2021/03/14 12:26:20;;;;;;;5.18;2.08;;;21.60;34.70;;;;;;5082906;28;20025;-60
2021/03/14 12:28:45;;;;;;;4.95;2.10;;;21.70;34.60;;;;;;5083872;28;20033;-59
2021/03/14 12:31:11;;;;;;;3.67;1.73;;;21.70;34.50;;;;;;5086124;28;20027;-59
2021/03/14 12:33:37;;;;;;;6.82;1.80;;;21.70;34.50;;;;;;5085645;28;20154;-59
2021/03/14 12:36:02;;;;;;;6.10;2.20;;;21.70;34.60;;;;;;5085870;28;20032;-59
2021/03/14 12:38:28;;;;;;;3.65;1.88;;;21.60;34.70;;;;;;5086231;28;20067;-59
2021/03/14 12:40:53;;;;;;;4.63;1.90;;;21.60;34.70;;;;;;5085721;28;20027;-60
2021/03/14 12:43:22;;;;;;;5.60;1.80;;;21.50;34.80;;;;;;5086467;28;20021;-63
2021/03/14 12:45:49;;;;;;;4.28;2.00;;;21.50;34.80;;;;;;5085238;28;20036;-59
2021/03/14 12:48:18;;;;;;;4.75;2.10;;;21.50;34.90;;;;;;5084906;28;20286;-59
2021/03/14 12:50:44;;;;;;;4.22;1.80;;;21.50;35.00;;;;;;5085681;28;20024;-59
2021/03/14 12:53:10;;;;;;;4.10;1.60;;;21.50;35.00;;;;;;5085746;28;20033;-59